createdAt,value
2023-12-07T00:00:43.448Z,101228.00
2023-12-07T00:06:11.908Z,101238.31
2023-12-07T00:11:18.585Z,101239.19
2023-12-07T00:16:24.896Z,101234.09
2023-12-07T00:21:32.928Z,101237.59
2023-12-07T00:26:39.832Z,101240.97
2023-12-07T00:31:47.805Z,101240.75
2023-12-07T00:36:55.884Z,101239.28
2023-12-07T00:42:02.436Z,101231.72
2023-12-07T00:47:09.041Z,101233.47
2023-12-07T00:52:17.454Z,101236.94
2023-12-07T00:57:23.983Z,101240.31
2023-12-07T01:02:30.298Z,101235.94
2023-12-07T01:07:38.192Z,101244.69
2023-12-07T01:12:44.593Z,101232.72
2023-12-07T01:17:51.101Z,101237.75
2023-12-07T01:22:58.910Z,101238.72
2023-12-07T01:28:05.242Z,101238.72
2023-12-07T01:33:11.708Z,101231.13
2023-12-07T01:38:20.852Z,101232.00
2023-12-07T01:43:27.176Z,101237.88
2023-12-07T01:48:33.962Z,101228.72
2023-12-07T01:53:43.172Z,101220.19
2023-12-07T01:58:50.159Z,101230.22
2023-12-07T02:03:56.558Z,101232.91
2023-12-07T02:09:05.408Z,101233.72
2023-12-07T02:14:11.995Z,101234.69
2023-12-07T02:19:46.500Z,101232.19
2023-12-07T02:25:10.458Z,101241.63
2023-12-07T02:30:18.940Z,101228.00
2023-12-07T02:35:26.997Z,101235.72
2023-12-07T02:40:34.322Z,101233.16
2023-12-07T02:45:42.501Z,101233.34
2023-12-07T02:50:49.069Z,101235.91
2023-12-07T02:55:55.556Z,101240.31
2023-12-07T03:01:03.540Z,101241.13
2023-12-07T03:06:10.649Z,101237.03
2023-12-07T03:11:17.354Z,101246.50
2023-12-07T03:16:25.274Z,101243.94
2023-12-07T03:21:31.921Z,101256.84
2023-12-07T03:26:38.479Z,101255.16
2023-12-07T03:31:46.248Z,101257.00
2023-12-07T03:36:53.475Z,101257.03
2023-12-07T03:42:00.140Z,101260.44
2023-12-07T03:47:08.469Z,101260.47
2023-12-07T03:52:14.980Z,101262.13
2023-12-07T03:57:22.030Z,101260.47
2023-12-07T04:02:34.091Z,101263.09
2023-12-07T04:07:40.984Z,101259.72
2023-12-07T04:12:47.670Z,101261.44
2023-12-07T04:17:55.759Z,101260.66
2023-12-07T04:23:02.548Z,101253.84
2023-12-07T04:28:09.028Z,101255.53
2023-12-07T04:33:17.087Z,101259.66
2023-12-07T04:38:23.866Z,101262.28
2023-12-07T04:43:30.474Z,101263.94
2023-12-07T04:48:38.443Z,101260.53
2023-12-07T04:53:44.881Z,101262.22
2023-12-07T04:58:51.494Z,101266.66
2023-12-07T05:03:59.456Z,101266.66
2023-12-07T05:09:06.848Z,101275.22
2023-12-07T05:14:14.001Z,101270.94
2023-12-07T05:19:22.322Z,101276.81
2023-12-07T05:24:29.085Z,101286.16
2023-12-07T05:29:37.199Z,101285.31
2023-12-07T05:34:47.268Z,101281.06
2023-12-07T05:39:54.000Z,101270.78
2023-12-07T05:45:01.235Z,101288.75
2023-12-07T05:50:12.926Z,101295.66
2023-12-07T05:55:19.750Z,101295.69
2023-12-07T06:00:26.898Z,101307.00
2023-12-07T06:05:34.775Z,101311.19
2023-12-07T06:10:41.551Z,101316.41
2023-12-07T06:15:48.465Z,101324.06
2023-12-07T06:20:56.600Z,101321.53
2023-12-07T06:26:03.614Z,101327.38
2023-12-07T06:31:10.479Z,101329.00
2023-12-07T06:36:23.913Z,101333.50
2023-12-07T06:41:30.318Z,101336.13
2023-12-07T06:46:36.938Z,101340.50
2023-12-07T06:51:45.092Z,101343.06
2023-12-07T06:56:51.669Z,101344.84
2023-12-07T07:01:58.164Z,101336.41
2023-12-07T07:07:06.314Z,101337.25
2023-12-07T07:12:12.721Z,101335.56
2023-12-07T07:17:19.155Z,101340.03
2023-12-07T07:22:27.195Z,101340.94
2023-12-07T07:27:33.696Z,101347.78
2023-12-07T07:32:40.461Z,101341.75
2023-12-07T07:37:48.621Z,101342.81
2023-12-07T07:42:55.335Z,101348.03
2023-12-07T07:48:01.693Z,101342.91
2023-12-07T07:53:09.635Z,101356.66
2023-12-07T07:58:16.115Z,101350.81
2023-12-07T08:03:22.943Z,101355.03
2023-12-07T08:08:30.985Z,101353.44
2023-12-07T08:13:37.571Z,101356.91
2023-12-07T08:18:44.208Z,101357.97
2023-12-07T08:23:52.708Z,101353.63
2023-12-07T08:28:59.147Z,101350.28
2023-12-07T08:34:05.760Z,101351.13
2023-12-07T08:39:13.948Z,101353.06
2023-12-07T08:44:20.253Z,101359.88
2023-12-07T08:49:27.492Z,101362.56
2023-12-07T08:54:37.613Z,101362.59
2023-12-07T08:59:44.350Z,101364.56
2023-12-07T09:04:53.337Z,101367.09
2023-12-07T09:10:01.395Z,101370.63
2023-12-07T09:15:11.864Z,101371.38
2023-12-07T09:20:18.857Z,101363.91
2023-12-07T09:25:29.299Z,101367.41
2023-12-07T09:30:36.098Z,101380.31
2023-12-07T09:35:42.825Z,101379.63
2023-12-07T09:40:56.164Z,101376.25
2023-12-07T09:46:03.088Z,101366.88
2023-12-07T09:51:11.230Z,101375.34
2023-12-07T09:56:19.553Z,101372.91
2023-12-07T10:01:32.803Z,101373.69
2023-12-07T10:06:47.236Z,101375.53
2023-12-07T10:12:06.391Z,101375.84
2023-12-07T10:17:12.896Z,101367.47
2023-12-07T10:22:19.677Z,101369.22
2023-12-07T10:27:29.768Z,101360.81
2023-12-07T10:32:39.465Z,101356.63
2023-12-07T10:37:46.210Z,101359.16
2023-12-07T10:42:59.833Z,101356.72
2023-12-07T10:48:08.425Z,101351.63
2023-12-07T10:53:22.069Z,101352.41
2023-12-07T10:58:30.107Z,101346.34
2023-12-07T11:03:38.594Z,101349.91
2023-12-07T11:08:52.449Z,101343.88
2023-12-07T11:14:05.459Z,101337.25
2023-12-07T11:19:49.210Z,101333.84
2023-12-07T11:25:02.854Z,101333.97
2023-12-07T11:30:15.484Z,101342.59
2023-12-07T11:35:22.077Z,101340.91
2023-12-07T11:40:28.572Z,101340.78
2023-12-07T11:45:51.687Z,101340.13
2023-12-07T11:51:00.482Z,101348.69
2023-12-07T11:56:09.918Z,101357.13
2023-12-07T12:01:18.228Z,101354.66
2023-12-07T12:06:27.972Z,101354.72
2023-12-07T12:11:34.597Z,101354.81
2023-12-07T12:16:42.797Z,101356.44
2023-12-07T12:21:49.246Z,101346.16
2023-12-07T12:26:55.713Z,101347.09
2023-12-07T12:32:05.072Z,101335.91
2023-12-07T12:37:13.835Z,101336.53
2023-12-07T12:42:20.324Z,101334.13
2023-12-07T12:47:28.569Z,101339.34
2023-12-07T12:52:35.700Z,101348.69
2023-12-07T12:57:42.727Z,101353.00
2023-12-07T13:02:50.892Z,101355.63
2023-12-07T13:08:08.472Z,101344.34
2023-12-07T13:13:21.193Z,101352.09
2023-12-07T13:18:29.186Z,101354.59
2023-12-07T13:23:36.119Z,101353.72
2023-12-07T13:28:42.619Z,101358.00
2023-12-07T13:33:56.196Z,101366.44
2023-12-07T13:39:05.096Z,101359.59
2023-12-07T13:44:14.984Z,101366.47
2023-12-07T13:49:32.596Z,101363.13
2023-12-07T13:54:51.479Z,101368.06
2023-12-07T14:00:02.682Z,101368.84
2023-12-07T14:05:13.396Z,101369.66
2023-12-07T14:10:20.026Z,101375.56
2023-12-07T14:15:35.291Z,101375.50
2023-12-07T14:21:01.985Z,101381.53
2023-12-07T14:26:17.191Z,101389.03
2023-12-07T14:31:23.586Z,101385.47
2023-12-07T14:36:32.291Z,101389.72
2023-12-07T14:41:38.960Z,101394.88
2023-12-07T14:46:46.551Z,101403.31
2023-12-07T14:52:00.100Z,101402.59
2023-12-07T14:57:09.731Z,101411.94
2023-12-07T15:02:17.460Z,101413.47
2023-12-07T15:07:25.453Z,101417.84
2023-12-07T15:12:32.213Z,101423.69
2023-12-07T15:17:38.927Z,101426.25
2023-12-07T15:22:47.580Z,101425.28
2023-12-07T15:27:54.080Z,101435.47
2023-12-07T15:33:00.686Z,101437.25
2023-12-07T15:38:09.247Z,101434.72
2023-12-07T15:43:15.686Z,101423.28
2023-12-07T15:48:22.575Z,101428.38
2023-12-07T15:53:31.056Z,101424.69
2023-12-07T15:58:37.508Z,101427.34
2023-12-07T16:03:44.084Z,101434.13
2023-12-07T16:08:51.955Z,101436.63
2023-12-07T16:14:02.483Z,101443.19
2023-12-07T16:19:09.833Z,101444.16
2023-12-07T16:24:18.225Z,101443.28
2023-12-07T16:29:24.896Z,101449.88
2023-12-07T16:34:32.258Z,101443.91
2023-12-07T16:39:45.820Z,101449.78
2023-12-07T16:44:53.782Z,101452.41
2023-12-07T16:50:01.058Z,101454.88
2023-12-07T16:55:11.930Z,101458.31
2023-12-07T17:00:20.095Z,101453.13
2023-12-07T17:05:27.011Z,101453.03
2023-12-07T17:10:35.245Z,101462.44
2023-12-07T17:15:42.282Z,101464.28
2023-12-07T17:20:48.938Z,101450.56
2023-12-07T17:25:57.047Z,101454.88
2023-12-07T17:31:03.714Z,101453.78
2023-12-07T17:36:11.678Z,101463.44
2023-12-07T17:41:22.039Z,101469.13
2023-12-07T17:46:28.713Z,101479.56
2023-12-07T17:51:35.319Z,101488.44
2023-12-07T17:56:44.951Z,101486.19
2023-12-07T18:01:51.522Z,101488.75
2023-12-07T18:06:58.389Z,101489.63
2023-12-07T18:12:07.576Z,101483.50
2023-12-07T18:17:15.892Z,101470.69
2023-12-07T18:22:22.666Z,101476.34
2023-12-07T18:27:30.971Z,101481.63
2023-12-07T18:32:37.764Z,101488.34
2023-12-07T18:37:44.223Z,101480.72
2023-12-07T18:42:51.893Z,101484.25
2023-12-07T18:47:58.577Z,101490.03
2023-12-07T18:53:05.679Z,101483.28
2023-12-07T18:58:13.793Z,101482.31
2023-12-07T19:03:20.461Z,101482.31
2023-12-07T19:08:27.082Z,101479.63
2023-12-07T19:13:35.201Z,101488.19
2023-12-07T19:18:42.280Z,101488.25
2023-12-07T19:23:49.349Z,101501.09
2023-12-07T19:28:57.480Z,101499.25
2023-12-07T19:34:04.506Z,101508.63
2023-12-07T19:39:14.751Z,101509.34
2023-12-07T19:44:22.977Z,101510.97
2023-12-07T19:49:30.224Z,101506.66
2023-12-07T19:54:37.796Z,101510.56
2023-12-07T19:59:47.055Z,101503.00
2023-12-07T20:04:54.211Z,101508.84
2023-12-07T20:10:00.980Z,101499.19
2023-12-07T20:15:12.786Z,101508.59
2023-12-07T20:20:24.862Z,101508.59
2023-12-07T20:25:31.771Z,101520.47
2023-12-07T20:30:40.333Z,101529.44
2023-12-07T20:35:47.606Z,101515.75
2023-12-07T20:40:54.855Z,101513.84
2023-12-07T20:46:03.421Z,101507.94
2023-12-07T20:51:10.033Z,101516.47
2023-12-07T20:56:19.514Z,101527.41
2023-12-07T21:01:27.560Z,101536.94
2023-12-07T21:06:34.300Z,101535.31
2023-12-07T21:11:40.933Z,101531.78
2023-12-07T21:16:48.974Z,101522.03
2023-12-07T21:21:55.697Z,101528.72
2023-12-07T21:27:02.577Z,101523.97
2023-12-07T21:32:10.894Z,101538.47
2023-12-07T21:37:17.475Z,101533.84
2023-12-07T21:42:24.159Z,101534.66
2023-12-07T21:47:32.451Z,101532.28
2023-12-07T21:52:39.620Z,101530.53
2023-12-07T21:57:46.578Z,101542.09
2023-12-07T22:02:54.923Z,101544.91
2023-12-07T22:08:01.477Z,101540.47
2023-12-07T22:13:08.142Z,101546.47
2023-12-07T22:18:16.191Z,101527.47
2023-12-07T22:23:23.313Z,101513.69
2023-12-07T22:28:30.061Z,101516.06
2023-12-07T22:33:38.302Z,101509.63
2023-12-07T22:38:45.725Z,101502.69
2023-12-07T22:43:52.286Z,101505.94
2023-12-07T22:49:00.657Z,101503.31
2023-12-07T22:54:08.557Z,101495.19
2023-12-07T22:59:15.683Z,101502.75
2023-12-07T23:04:24.291Z,101487.41
2023-12-07T23:09:31.178Z,101486.97
2023-12-07T23:14:37.660Z,101491.16
2023-12-07T23:19:46.577Z,101480.84
2023-12-07T23:24:52.883Z,101477.25
2023-12-07T23:29:59.766Z,101475.50
2023-12-07T23:35:11.348Z,101470.31
2023-12-07T23:40:18.486Z,101481.09
2023-12-07T23:45:25.169Z,101480.34
2023-12-07T23:50:33.279Z,101474.50
2023-12-07T23:55:40.840Z,101483.38
